sensor_id;sensor_type;location;lat;lon;timestamp;P1;durP1;ratioP1;P2;durP2;ratioP2
66966;SDS011;53900;51.468;-2.586;2022-11-21T00:00:26;16.90;;;4.32;;
66966;SDS011;53900;51.468;-2.586;2022-11-21T00:02:52;13.45;;;3.13;;
66966;SDS011;53900;51.468;-2.586;2022-11-21T00:05:18;14.35;;;3.63;;
66966;SDS011;53900;51.468;-2.586;2022-11-21T00:07:43;16.42;;;3.97;;
66966;SDS011;53900;51.468;-2.586;2022-11-21T00:10:10;17.90;;;3.42;;
66966;SDS011;53900;51.468;-2.586;2022-11-21T00:12:36;14.65;;;3.20;;
66966;SDS011;53900;51.468;-2.586;2022-11-21T00:15:01;15.90;;;3.42;;
66966;SDS011;53900;51.468;-2.586;2022-11-21T00:17:27;10.23;;;3.38;;
66966;SDS011;53900;51.468;-2.586;2022-11-21T00:19:52;17.95;;;3.30;;
66966;SDS011;53900;51.468;-2.586;2022-11-21T00:22:17;15.25;;;3.20;;
66966;SDS011;53900;51.468;-2.586;2022-11-21T00:24:43;17.48;;;3.22;;
66966;SDS011;53900;51.468;-2.586;2022-11-21T00:27:08;16.27;;;3.45;;
66966;SDS011;53900;51.468;-2.586;2022-11-21T00:29:33;11.20;;;3.05;;
66966;SDS011;53900;51.468;-2.586;2022-11-21T00:31:59;12.02;;;2.90;;
66966;SDS011;53900;51.468;-2.586;2022-11-21T00:34:24;21.13;;;3.70;;
66966;SDS011;53900;51.468;-2.586;2022-11-21T00:36:49;16.35;;;3.88;;
66966;SDS011;53900;51.468;-2.586;2022-11-21T00:39:15;15.13;;;3.17;;
66966;SDS011;53900;51.468;-2.586;2022-11-21T00:41:40;21.05;;;3.35;;
66966;SDS011;53900;51.468;-2.586;2022-11-21T00:44:06;21.55;;;3.63;;
66966;SDS011;53900;51.468;-2.586;2022-11-21T00:46:31;16.50;;;3.90;;
66966;SDS011;53900;51.468;-2.586;2022-11-21T00:48:56;12.48;;;3.63;;
66966;SDS011;53900;51.468;-2.586;2022-11-21T00:51:21;18.70;;;4.15;;
66966;SDS011;53900;51.468;-2.586;2022-11-21T00:53:47;17.60;;;3.63;;
66966;SDS011;53900;51.468;-2.586;2022-11-21T00:56:12;15.15;;;4.10;;
66966;SDS011;53900;51.468;-2.586;2022-11-21T00:58:37;16.88;;;3.58;;
66966;SDS011;53900;51.468;-2.586;2022-11-21T01:03:35;15.50;;;2.92;;
66966;SDS011;53900;51.468;-2.586;2022-11-21T01:06:05;19.00;;;3.20;;
66966;SDS011;53900;51.468;-2.586;2022-11-21T01:08:36;16.92;;;3.28;;
66966;SDS011;53900;51.468;-2.586;2022-11-21T01:11:03;16.75;;;3.20;;
66966;SDS011;53900;51.468;-2.586;2022-11-21T01:13:29;12.48;;;3.28;;
66966;SDS011;53900;51.468;-2.586;2022-11-21T01:15:55;27.65;;;4.10;;
66966;SDS011;53900;51.468;-2.586;2022-11-21T01:18:20;14.27;;;4.32;;
66966;SDS011;53900;51.468;-2.586;2022-11-21T01:20:45;11.90;;;3.80;;
66966;SDS011;53900;51.468;-2.586;2022-11-21T01:23:10;13.38;;;3.72;;
66966;SDS011;53900;51.468;-2.586;2022-11-21T01:25:36;13.43;;;3.22;;
66966;SDS011;53900;51.468;-2.586;2022-11-21T01:28:01;17.02;;;3.92;;
66966;SDS011;53900;51.468;-2.586;2022-11-21T01:30:27;11.32;;;3.10;;
66966;SDS011;53900;51.468;-2.586;2022-11-21T01:32:52;18.55;;;3.28;;
66966;SDS011;53900;51.468;-2.586;2022-11-21T01:35:17;8.80;;;3.03;;
66966;SDS011;53900;51.468;-2.586;2022-11-21T01:37:46;19.23;;;3.60;;
66966;SDS011;53900;51.468;-2.586;2022-11-21T01:40:12;15.40;;;3.40;;
66966;SDS011;53900;51.468;-2.586;2022-11-21T01:42:54;20.33;;;3.75;;
66966;SDS011;53900;51.468;-2.586;2022-11-21T01:48:22;11.75;;;3.53;;
66966;SDS011;53900;51.468;-2.586;2022-11-21T01:50:54;16.42;;;2.85;;
66966;SDS011;53900;51.468;-2.586;2022-11-21T01:53:22;12.20;;;3.13;;
66966;SDS011;53900;51.468;-2.586;2022-11-21T01:55:48;13.63;;;3.00;;
66966;SDS011;53900;51.468;-2.586;2022-11-21T01:58:13;17.00;;;3.33;;
66966;SDS011;53900;51.468;-2.586;2022-11-21T02:00:39;20.88;;;3.75;;
66966;SDS011;53900;51.468;-2.586;2022-11-21T02:03:06;12.82;;;3.20;;
66966;SDS011;53900;51.468;-2.586;2022-11-21T02:05:35;19.30;;;3.38;;
66966;SDS011;53900;51.468;-2.586;2022-11-21T02:08:02;19.58;;;3.65;;
66966;SDS011;53900;51.468;-2.586;2022-11-21T02:10:38;16.65;;;3.22;;
66966;SDS011;53900;51.468;-2.586;2022-11-21T02:13:09;20.23;;;3.40;;
66966;SDS011;53900;51.468;-2.586;2022-11-21T02:15:35;15.45;;;3.33;;
66966;SDS011;53900;51.468;-2.586;2022-11-21T02:18:01;14.88;;;3.35;;
66966;SDS011;53900;51.468;-2.586;2022-11-21T02:20:27;12.60;;;2.97;;
66966;SDS011;53900;51.468;-2.586;2022-11-21T02:23:08;11.88;;;2.45;;
66966;SDS011;53900;51.468;-2.586;2022-11-21T02:25:55;14.30;;;2.63;;
66966;SDS011;53900;51.468;-2.586;2022-11-21T02:28:20;18.67;;;2.85;;
66966;SDS011;53900;51.468;-2.586;2022-11-21T02:30:47;13.35;;;3.00;;
66966;SDS011;53900;51.468;-2.586;2022-11-21T02:33:13;15.13;;;2.38;;
66966;SDS011;53900;51.468;-2.586;2022-11-21T02:35:39;16.17;;;2.80;;
66966;SDS011;53900;51.468;-2.586;2022-11-21T02:40:48;9.98;;;2.05;;
66966;SDS011;53900;51.468;-2.586;2022-11-21T02:43:17;17.88;;;2.90;;
66966;SDS011;53900;51.468;-2.586;2022-11-21T02:45:46;17.30;;;2.63;;
66966;SDS011;53900;51.468;-2.586;2022-11-21T02:48:11;16.55;;;3.05;;
66966;SDS011;53900;51.468;-2.586;2022-11-21T02:50:38;15.90;;;2.30;;
66966;SDS011;53900;51.468;-2.586;2022-11-21T02:53:08;12.77;;;2.88;;
66966;SDS011;53900;51.468;-2.586;2022-11-21T02:55:35;13.35;;;2.42;;
66966;SDS011;53900;51.468;-2.586;2022-11-21T02:58:02;17.73;;;2.70;;
66966;SDS011;53900;51.468;-2.586;2022-11-21T03:00:27;12.77;;;2.60;;
66966;SDS011;53900;51.468;-2.586;2022-11-21T03:02:52;22.30;;;3.42;;
66966;SDS011;53900;51.468;-2.586;2022-11-21T03:05:18;15.45;;;3.58;;
66966;SDS011;53900;51.468;-2.586;2022-11-21T03:07:44;17.38;;;2.80;;
66966;SDS011;53900;51.468;-2.586;2022-11-21T03:10:10;18.88;;;2.72;;
66966;SDS011;53900;51.468;-2.586;2022-11-21T03:12:36;17.65;;;3.00;;
66966;SDS011;53900;51.468;-2.586;2022-11-21T03:15:02;16.83;;;3.70;;
66966;SDS011;53900;51.468;-2.586;2022-11-21T03:17:31;19.48;;;2.55;;
66966;SDS011;53900;51.468;-2.586;2022-11-21T03:19:57;18.15;;;2.78;;
66966;SDS011;53900;51.468;-2.586;2022-11-21T03:22:22;15.45;;;2.85;;
66966;SDS011;53900;51.468;-2.586;2022-11-21T03:24:48;14.80;;;2.78;;
66966;SDS011;53900;51.468;-2.586;2022-11-21T03:27:13;15.85;;;2.83;;
66966;SDS011;53900;51.468;-2.586;2022-11-21T03:29:39;14.95;;;2.60;;
66966;SDS011;53900;51.468;-2.586;2022-11-21T03:32:04;19.98;;;3.10;;
66966;SDS011;53900;51.468;-2.586;2022-11-21T03:34:29;16.60;;;3.15;;
66966;SDS011;53900;51.468;-2.586;2022-11-21T03:36:55;13.77;;;2.90;;
66966;SDS011;53900;51.468;-2.586;2022-11-21T03:39:20;18.85;;;3.63;;
66966;SDS011;53900;51.468;-2.586;2022-11-21T03:41:45;21.77;;;2.97;;
66966;SDS011;53900;51.468;-2.586;2022-11-21T03:44:11;18.20;;;2.65;;
66966;SDS011;53900;51.468;-2.586;2022-11-21T03:46:37;14.50;;;2.28;;
66966;SDS011;53900;51.468;-2.586;2022-11-21T03:49:04;15.95;;;2.65;;
66966;SDS011;53900;51.468;-2.586;2022-11-21T03:51:30;12.77;;;2.67;;
66966;SDS011;53900;51.468;-2.586;2022-11-21T03:53:55;11.57;;;2.40;;
66966;SDS011;53900;51.468;-2.586;2022-11-21T03:56:20;12.45;;;2.58;;
66966;SDS011;53900;51.468;-2.586;2022-11-21T03:58:46;22.02;;;3.03;;
66966;SDS011;53900;51.468;-2.586;2022-11-21T04:01:12;23.65;;;2.97;;
66966;SDS011;53900;51.468;-2.586;2022-11-21T04:03:40;13.30;;;2.40;;
66966;SDS011;53900;51.468;-2.586;2022-11-21T04:06:06;14.55;;;2.40;;
66966;SDS011;53900;51.468;-2.586;2022-11-21T04:08:32;12.25;;;2.28;;
66966;SDS011;53900;51.468;-2.586;2022-11-21T04:10:57;12.48;;;1.83;;
66966;SDS011;53900;51.468;-2.586;2022-11-21T04:13:23;21.83;;;2.72;;
66966;SDS011;53900;51.468;-2.586;2022-11-21T04:15:48;19.17;;;2.85;;
66966;SDS011;53900;51.468;-2.586;2022-11-21T04:18:13;13.18;;;2.30;;
66966;SDS011;53900;51.468;-2.586;2022-11-21T04:20:39;20.35;;;2.70;;
66966;SDS011;53900;51.468;-2.586;2022-11-21T04:23:05;13.18;;;2.97;;
66966;SDS011;53900;51.468;-2.586;2022-11-21T04:25:30;9.10;;;2.05;;
66966;SDS011;53900;51.468;-2.586;2022-11-21T04:27:57;18.52;;;2.30;;
66966;SDS011;53900;51.468;-2.586;2022-11-21T04:30:22;10.75;;;2.42;;
66966;SDS011;53900;51.468;-2.586;2022-11-21T04:32:51;13.93;;;2.35;;
66966;SDS011;53900;51.468;-2.586;2022-11-21T04:35:18;14.40;;;3.00;;
66966;SDS011;53900;51.468;-2.586;2022-11-21T04:37:43;18.10;;;2.58;;
66966;SDS011;53900;51.468;-2.586;2022-11-21T04:40:09;13.82;;;2.38;;
66966;SDS011;53900;51.468;-2.586;2022-11-21T04:42:35;13.60;;;2.45;;
66966;SDS011;53900;51.468;-2.586;2022-11-21T04:45:00;16.65;;;2.50;;
66966;SDS011;53900;51.468;-2.586;2022-11-21T04:47:25;19.33;;;2.97;;
66966;SDS011;53900;51.468;-2.586;2022-11-21T04:49:51;12.52;;;2.55;;
66966;SDS011;53900;51.468;-2.586;2022-11-21T04:52:16;16.98;;;3.08;;
66966;SDS011;53900;51.468;-2.586;2022-11-21T04:54:41;14.68;;;2.33;;
66966;SDS011;53900;51.468;-2.586;2022-11-21T04:57:07;11.45;;;2.70;;
66966;SDS011;53900;51.468;-2.586;2022-11-21T04:59:32;18.77;;;2.80;;
66966;SDS011;53900;51.468;-2.586;2022-11-21T05:01:57;15.23;;;2.30;;
66966;SDS011;53900;51.468;-2.586;2022-11-21T05:04:24;10.80;;;2.10;;
66966;SDS011;53900;51.468;-2.586;2022-11-21T05:06:49;15.15;;;2.38;;
66966;SDS011;53900;51.468;-2.586;2022-11-21T05:09:14;16.63;;;2.35;;
66966;SDS011;53900;51.468;-2.586;2022-11-21T05:11:39;13.38;;;2.70;;
66966;SDS011;53900;51.468;-2.586;2022-11-21T05:14:23;20.75;;;2.35;;
66966;SDS011;53900;51.468;-2.586;2022-11-21T05:16:50;13.60;;;2.50;;
66966;SDS011;53900;51.468;-2.586;2022-11-21T05:19:16;16.50;;;2.38;;
66966;SDS011;53900;51.468;-2.586;2022-11-21T05:21:41;10.50;;;2.15;;
66966;SDS011;53900;51.468;-2.586;2022-11-21T05:24:06;13.95;;;2.60;;
66966;SDS011;53900;51.468;-2.586;2022-11-21T05:26:32;18.27;;;2.55;;
66966;SDS011;53900;51.468;-2.586;2022-11-21T05:28:57;14.38;;;2.97;;
66966;SDS011;53900;51.468;-2.586;2022-11-21T05:31:22;15.82;;;3.10;;
66966;SDS011;53900;51.468;-2.586;2022-11-21T05:33:48;17.58;;;2.58;;
66966;SDS011;53900;51.468;-2.586;2022-11-21T05:36:13;10.05;;;2.33;;
66966;SDS011;53900;51.468;-2.586;2022-11-21T05:38:38;16.15;;;2.80;;
66966;SDS011;53900;51.468;-2.586;2022-11-21T05:41:04;12.95;;;2.30;;
66966;SDS011;53900;51.468;-2.586;2022-11-21T05:43:29;15.45;;;2.50;;
66966;SDS011;53900;51.468;-2.586;2022-11-21T05:46:10;9.77;;;1.98;;
66966;SDS011;53900;51.468;-2.586;2022-11-21T05:48:38;21.10;;;3.00;;
66966;SDS011;53900;51.468;-2.586;2022-11-21T05:51:04;12.35;;;2.28;;
66966;SDS011;53900;51.468;-2.586;2022-11-21T05:53:29;16.27;;;2.42;;
66966;SDS011;53900;51.468;-2.586;2022-11-21T05:55:55;15.43;;;2.58;;
66966;SDS011;53900;51.468;-2.586;2022-11-21T05:58:20;20.67;;;2.60;;
66966;SDS011;53900;51.468;-2.586;2022-11-21T06:00:45;10.10;;;2.25;;
66966;SDS011;53900;51.468;-2.586;2022-11-21T06:03:11;9.25;;;2.42;;
66966;SDS011;53900;51.468;-2.586;2022-11-21T06:05:52;14.80;;;2.35;;
66966;SDS011;53900;51.468;-2.586;2022-11-21T06:08:28;17.52;;;2.28;;
66966;SDS011;53900;51.468;-2.586;2022-11-21T06:10:55;19.48;;;2.53;;
66966;SDS011;53900;51.468;-2.586;2022-11-21T06:13:20;14.13;;;2.55;;
66966;SDS011;53900;51.468;-2.586;2022-11-21T06:16:07;14.13;;;1.92;;
66966;SDS011;53900;51.468;-2.586;2022-11-21T06:18:36;9.50;;;2.10;;
66966;SDS011;53900;51.468;-2.586;2022-11-21T06:21:22;11.57;;;1.90;;
66966;SDS011;53900;51.468;-2.586;2022-11-21T06:23:49;18.42;;;2.65;;
66966;SDS011;53900;51.468;-2.586;2022-11-21T06:26:16;14.13;;;2.42;;
66966;SDS011;53900;51.468;-2.586;2022-11-21T06:28:44;14.98;;;2.58;;
66966;SDS011;53900;51.468;-2.586;2022-11-21T06:31:12;12.68;;;2.78;;
66966;SDS011;53900;51.468;-2.586;2022-11-21T06:33:39;10.68;;;2.28;;
66966;SDS011;53900;51.468;-2.586;2022-11-21T06:36:06;17.75;;;2.42;;
66966;SDS011;53900;51.468;-2.586;2022-11-21T06:38:33;17.75;;;2.45;;
66966;SDS011;53900;51.468;-2.586;2022-11-21T06:41:05;15.60;;;2.40;;
66966;SDS011;53900;51.468;-2.586;2022-11-21T06:43:32;14.38;;;2.22;;
66966;SDS011;53900;51.468;-2.586;2022-11-21T06:45:57;15.82;;;2.67;;
66966;SDS011;53900;51.468;-2.586;2022-11-21T06:48:23;14.82;;;2.88;;
66966;SDS011;53900;51.468;-2.586;2022-11-21T06:50:49;15.10;;;2.33;;
66966;SDS011;53900;51.468;-2.586;2022-11-21T06:53:14;17.17;;;3.00;;
66966;SDS011;53900;51.468;-2.586;2022-11-21T06:55:39;14.18;;;2.53;;
66966;SDS011;53900;51.468;-2.586;2022-11-21T06:58:05;17.92;;;2.28;;
66966;SDS011;53900;51.468;-2.586;2022-11-21T07:00:30;20.88;;;2.75;;
66966;SDS011;53900;51.468;-2.586;2022-11-21T07:02:59;16.20;;;2.95;;
66966;SDS011;53900;51.468;-2.586;2022-11-21T07:05:25;15.05;;;2.38;;
66966;SDS011;53900;51.468;-2.586;2022-11-21T07:07:51;15.20;;;2.22;;
66966;SDS011;53900;51.468;-2.586;2022-11-21T07:10:16;11.90;;;2.08;;
66966;SDS011;53900;51.468;-2.586;2022-11-21T07:12:41;18.45;;;2.50;;
66966;SDS011;53900;51.468;-2.586;2022-11-21T07:15:25;13.05;;;2.50;;
66966;SDS011;53900;51.468;-2.586;2022-11-21T07:17:50;13.55;;;2.28;;
66966;SDS011;53900;51.468;-2.586;2022-11-21T07:20:16;15.57;;;2.90;;
66966;SDS011;53900;51.468;-2.586;2022-11-21T07:22:41;23.15;;;2.78;;
66966;SDS011;53900;51.468;-2.586;2022-11-21T07:25:07;16.15;;;2.70;;
66966;SDS011;53900;51.468;-2.586;2022-11-21T07:27:32;13.18;;;2.35;;
66966;SDS011;53900;51.468;-2.586;2022-11-21T07:29:58;16.85;;;2.97;;
66966;SDS011;53900;51.468;-2.586;2022-11-21T07:32:24;19.02;;;3.17;;
66966;SDS011;53900;51.468;-2.586;2022-11-21T07:34:49;25.40;;;3.30;;
66966;SDS011;53900;51.468;-2.586;2022-11-21T07:37:15;16.85;;;2.50;;
66966;SDS011;53900;51.468;-2.586;2022-11-21T07:39:40;16.23;;;2.67;;
66966;SDS011;53900;51.468;-2.586;2022-11-21T07:42:05;14.70;;;2.17;;
66966;SDS011;53900;51.468;-2.586;2022-11-21T07:44:31;16.88;;;2.33;;
66966;SDS011;53900;51.468;-2.586;2022-11-21T07:46:56;15.07;;;2.25;;
66966;SDS011;53900;51.468;-2.586;2022-11-21T07:49:21;16.80;;;2.55;;
66966;SDS011;53900;51.468;-2.586;2022-11-21T07:51:47;15.18;;;2.85;;
66966;SDS011;53900;51.468;-2.586;2022-11-21T07:54:12;11.95;;;2.10;;
66966;SDS011;53900;51.468;-2.586;2022-11-21T07:56:37;18.88;;;2.67;;
66966;SDS011;53900;51.468;-2.586;2022-11-21T07:59:03;19.70;;;2.63;;
66966;SDS011;53900;51.468;-2.586;2022-11-21T08:01:28;13.35;;;2.28;;
66966;SDS011;53900;51.468;-2.586;2022-11-21T08:03:53;12.43;;;2.55;;
66966;SDS011;53900;51.468;-2.586;2022-11-21T08:06:19;16.45;;;3.22;;
66966;SDS011;53900;51.468;-2.586;2022-11-21T08:08:44;22.70;;;3.90;;
66966;SDS011;53900;51.468;-2.586;2022-11-21T08:11:09;18.90;;;2.97;;
66966;SDS011;53900;51.468;-2.586;2022-11-21T08:13:35;15.38;;;3.13;;
66966;SDS011;53900;51.468;-2.586;2022-11-21T08:16:03;21.27;;;3.22;;
66966;SDS011;53900;51.468;-2.586;2022-11-21T08:18:28;19.33;;;3.38;;
66966;SDS011;53900;51.468;-2.586;2022-11-21T08:20:53;18.33;;;2.88;;
66966;SDS011;53900;51.468;-2.586;2022-11-21T08:23:19;18.58;;;2.90;;
66966;SDS011;53900;51.468;-2.586;2022-11-21T08:25:44;22.48;;;3.28;;
66966;SDS011;53900;51.468;-2.586;2022-11-21T08:28:10;22.15;;;3.45;;
66966;SDS011;53900;51.468;-2.586;2022-11-21T08:30:35;20.83;;;2.92;;
66966;SDS011;53900;51.468;-2.586;2022-11-21T08:33:03;22.67;;;4.20;;
66966;SDS011;53900;51.468;-2.586;2022-11-21T08:35:29;17.05;;;3.05;;
66966;SDS011;53900;51.468;-2.586;2022-11-21T08:37:58;14.57;;;3.15;;
66966;SDS011;53900;51.468;-2.586;2022-11-21T08:40:25;10.43;;;2.28;;
66966;SDS011;53900;51.468;-2.586;2022-11-21T08:42:57;16.30;;;2.53;;
66966;SDS011;53900;51.468;-2.586;2022-11-21T08:45:23;11.23;;;2.65;;
66966;SDS011;53900;51.468;-2.586;2022-11-21T08:47:48;11.18;;;2.28;;
66966;SDS011;53900;51.468;-2.586;2022-11-21T08:50:14;15.60;;;2.97;;
66966;SDS011;53900;51.468;-2.586;2022-11-21T08:52:39;12.45;;;3.22;;
66966;SDS011;53900;51.468;-2.586;2022-11-21T08:55:05;18.85;;;3.00;;
66966;SDS011;53900;51.468;-2.586;2022-11-21T08:57:30;18.80;;;3.28;;
66966;SDS011;53900;51.468;-2.586;2022-11-21T08:59:56;17.67;;;2.70;;
66966;SDS011;53900;51.468;-2.586;2022-11-21T09:02:21;20.27;;;3.35;;
66966;SDS011;53900;51.468;-2.586;2022-11-21T09:04:46;15.32;;;2.78;;
66966;SDS011;53900;51.468;-2.586;2022-11-21T09:07:12;15.40;;;2.53;;
66966;SDS011;53900;51.468;-2.586;2022-11-21T09:09:37;14.93;;;2.70;;
66966;SDS011;53900;51.468;-2.586;2022-11-21T09:12:02;13.25;;;2.33;;
66966;SDS011;53900;51.468;-2.586;2022-11-21T09:14:28;19.80;;;2.88;;
66966;SDS011;53900;51.468;-2.586;2022-11-21T09:17:12;17.65;;;2.72;;
66966;SDS011;53900;51.468;-2.586;2022-11-21T09:19:57;19.55;;;2.80;;
66966;SDS011;53900;51.468;-2.586;2022-11-21T09:22:22;15.75;;;3.10;;
66966;SDS011;53900;51.468;-2.586;2022-11-21T09:24:49;10.07;;;2.33;;
66966;SDS011;53900;51.468;-2.586;2022-11-21T09:27:14;17.33;;;2.60;;
66966;SDS011;53900;51.468;-2.586;2022-11-21T09:29:39;18.95;;;2.70;;
66966;SDS011;53900;51.468;-2.586;2022-11-21T09:32:05;18.48;;;2.90;;
66966;SDS011;53900;51.468;-2.586;2022-11-21T09:34:30;17.50;;;2.53;;
66966;SDS011;53900;51.468;-2.586;2022-11-21T09:36:55;13.98;;;2.67;;
66966;SDS011;53900;51.468;-2.586;2022-11-21T09:39:21;14.30;;;2.60;;
66966;SDS011;53900;51.468;-2.586;2022-11-21T09:41:50;10.98;;;2.45;;
66966;SDS011;53900;51.468;-2.586;2022-11-21T09:47:26;13.55;;;2.58;;
66966;SDS011;53900;51.468;-2.586;2022-11-21T09:49:56;20.85;;;3.13;;
66966;SDS011;53900;51.468;-2.586;2022-11-21T09:54:52;18.45;;;2.58;;
66966;SDS011;53900;51.468;-2.586;2022-11-21T09:57:22;11.70;;;2.30;;
66966;SDS011;53900;51.468;-2.586;2022-11-21T09:59:49;14.65;;;2.55;;
66966;SDS011;53900;51.468;-2.586;2022-11-21T10:02:15;14.60;;;2.45;;
66966;SDS011;53900;51.468;-2.586;2022-11-21T10:04:42;18.88;;;2.42;;
66966;SDS011;53900;51.468;-2.586;2022-11-21T10:07:13;8.82;;;2.45;;
66966;SDS011;53900;51.468;-2.586;2022-11-21T10:18:29;13.77;;;2.58;;
66966;SDS011;53900;51.468;-2.586;2022-11-21T10:26:37;9.60;;;2.45;;
66966;SDS011;53900;51.468;-2.586;2022-11-21T10:29:20;15.00;;;2.75;;
66966;SDS011;53900;51.468;-2.586;2022-11-21T10:31:50;8.07;;;2.17;;
66966;SDS011;53900;51.468;-2.586;2022-11-21T10:34:19;11.20;;;2.08;;
66966;SDS011;53900;51.468;-2.586;2022-11-21T10:36:48;12.57;;;2.25;;
66966;SDS011;53900;51.468;-2.586;2022-11-21T10:41:55;8.63;;;1.98;;
66966;SDS011;53900;51.468;-2.586;2022-11-21T10:44:25;12.60;;;1.77;;
66966;SDS011;53900;51.468;-2.586;2022-11-21T10:47:15;8.77;;;2.05;;
66966;SDS011;53900;51.468;-2.586;2022-11-21T10:52:29;7.40;;;1.70;;
66966;SDS011;53900;51.468;-2.586;2022-11-21T10:57:32;8.05;;;1.77;;
66966;SDS011;53900;51.468;-2.586;2022-11-21T11:02:39;5.63;;;1.55;;
66966;SDS011;53900;51.468;-2.586;2022-11-21T11:07:40;7.93;;;1.55;;
66966;SDS011;53900;51.468;-2.586;2022-11-21T11:10:21;4.82;;;1.08;;
66966;SDS011;53900;51.468;-2.586;2022-11-21T11:12:50;5.22;;;1.38;;
66966;SDS011;53900;51.468;-2.586;2022-11-21T11:15:52;5.82;;;1.55;;
66966;SDS011;53900;51.468;-2.586;2022-11-21T11:18:23;3.95;;;1.02;;
66966;SDS011;53900;51.468;-2.586;2022-11-21T11:20:49;8.95;;;1.40;;
66966;SDS011;53900;51.468;-2.586;2022-11-21T11:23:16;6.90;;;1.33;;
66966;SDS011;53900;51.468;-2.586;2022-11-21T11:25:49;7.80;;;1.23;;
66966;SDS011;53900;51.468;-2.586;2022-11-21T11:28:16;4.63;;;1.17;;
66966;SDS011;53900;51.468;-2.586;2022-11-21T11:30:43;3.85;;;1.17;;
66966;SDS011;53900;51.468;-2.586;2022-11-21T11:33:28;5.57;;;1.05;;
66966;SDS011;53900;51.468;-2.586;2022-11-21T11:38:37;6.43;;;1.52;;
66966;SDS011;53900;51.468;-2.586;2022-11-21T11:41:37;5.55;;;1.08;;
66966;SDS011;53900;51.468;-2.586;2022-11-21T11:44:45;7.18;;;1.83;;
66966;SDS011;53900;51.468;-2.586;2022-11-21T11:47:48;6.85;;;1.50;;
66966;SDS011;53900;51.468;-2.586;2022-11-21T11:50:21;11.10;;;1.77;;
66966;SDS011;53900;51.468;-2.586;2022-11-21T11:53:02;5.15;;;1.20;;
66966;SDS011;53900;51.468;-2.586;2022-11-21T11:55:41;5.55;;;1.63;;
66966;SDS011;53900;51.468;-2.586;2022-11-21T11:58:12;5.40;;;1.63;;
66966;SDS011;53900;51.468;-2.586;2022-11-21T12:00:45;11.38;;;1.52;;
66966;SDS011;53900;51.468;-2.586;2022-11-21T12:03:15;3.80;;;1.17;;
66966;SDS011;53900;51.468;-2.586;2022-11-21T12:05:55;2.70;;;1.25;;
66966;SDS011;53900;51.468;-2.586;2022-11-21T12:10:56;3.35;;;1.13;;
66966;SDS011;53900;51.468;-2.586;2022-11-21T12:13:51;6.53;;;1.67;;
66966;SDS011;53900;51.468;-2.586;2022-11-21T12:16:18;5.72;;;1.30;;
66966;SDS011;53900;51.468;-2.586;2022-11-21T12:18:47;3.50;;;1.10;;
66966;SDS011;53900;51.468;-2.586;2022-11-21T12:21:16;8.40;;;0.93;;
66966;SDS011;53900;51.468;-2.586;2022-11-21T12:23:52;6.72;;;1.45;;
66966;SDS011;53900;51.468;-2.586;2022-11-21T12:32:04;3.25;;;1.42;;
66966;SDS011;53900;51.468;-2.586;2022-11-21T12:45:29;4.75;;;1.08;;
66966;SDS011;53900;51.468;-2.586;2022-11-21T13:05:31;4.00;;;0.47;;
66966;SDS011;53900;51.468;-2.586;2022-11-21T13:08:01;1.08;;;0.50;;
66966;SDS011;53900;51.468;-2.586;2022-11-21T13:10:31;3.83;;;0.70;;
66966;SDS011;53900;51.468;-2.586;2022-11-21T13:15:26;1.60;;;0.70;;
66966;SDS011;53900;51.468;-2.586;2022-11-21T13:17:55;3.30;;;0.75;;
66966;SDS011;53900;51.468;-2.586;2022-11-21T13:20:30;4.03;;;1.00;;
66966;SDS011;53900;51.468;-2.586;2022-11-21T13:22:59;4.63;;;1.00;;
66966;SDS011;53900;51.468;-2.586;2022-11-21T13:30:46;2.67;;;0.98;;
66966;SDS011;53900;51.468;-2.586;2022-11-21T13:47:04;4.45;;;1.20;;
66966;SDS011;53900;51.468;-2.586;2022-11-21T13:50:16;5.53;;;1.58;;
66966;SDS011;53900;51.468;-2.586;2022-11-21T13:52:30;9.65;;;1.67;;
66966;SDS011;53900;51.468;-2.586;2022-11-21T13:58:27;9.82;;;2.25;;
66966;SDS011;53900;51.468;-2.586;2022-11-21T14:06:34;8.27;;;1.02;;
66966;SDS011;53900;51.468;-2.586;2022-11-21T14:11:46;3.45;;;0.60;;
66966;SDS011;53900;51.468;-2.586;2022-11-21T14:14:26;1.83;;;1.10;;
66966;SDS011;53900;51.468;-2.586;2022-11-21T14:16:55;1.88;;;0.50;;
66966;SDS011;53900;51.468;-2.586;2022-11-21T14:19:42;0.77;;;0.30;;
66966;SDS011;53900;51.468;-2.586;2022-11-21T14:22:26;1.17;;;0.50;;
66966;SDS011;53900;51.468;-2.586;2022-11-21T14:24:55;1.23;;;0.55;;
66966;SDS011;53900;51.468;-2.586;2022-11-21T14:27:24;2.35;;;0.75;;
66966;SDS011;53900;51.468;-2.586;2022-11-21T14:29:53;0.25;;;0.25;;
66966;SDS011;53900;51.468;-2.586;2022-11-21T14:32:26;1.70;;;0.40;;
66966;SDS011;53900;51.468;-2.586;2022-11-21T14:35:18;0.38;;;0.38;;
66966;SDS011;53900;51.468;-2.586;2022-11-21T14:37:47;3.67;;;0.45;;
66966;SDS011;53900;51.468;-2.586;2022-11-21T14:40:18;0.40;;;0.30;;
66966;SDS011;53900;51.468;-2.586;2022-11-21T14:42:44;1.70;;;0.55;;
66966;SDS011;53900;51.468;-2.586;2022-11-21T14:45:17;1.67;;;0.40;;
66966;SDS011;53900;51.468;-2.586;2022-11-21T14:47:50;2.88;;;0.70;;
66966;SDS011;53900;51.468;-2.586;2022-11-21T14:50:27;2.05;;;0.75;;
66966;SDS011;53900;51.468;-2.586;2022-11-21T14:52:55;5.20;;;1.10;;
66966;SDS011;53900;51.468;-2.586;2022-11-21T14:55:27;2.42;;;0.60;;
66966;SDS011;53900;51.468;-2.586;2022-11-21T14:57:54;3.53;;;0.90;;
66966;SDS011;53900;51.468;-2.586;2022-11-21T15:00:22;4.88;;;1.00;;
66966;SDS011;53900;51.468;-2.586;2022-11-21T15:02:52;2.22;;;0.80;;
66966;SDS011;53900;51.468;-2.586;2022-11-21T15:05:19;3.10;;;0.80;;
66966;SDS011;53900;51.468;-2.586;2022-11-21T15:07:47;2.72;;;0.70;;
66966;SDS011;53900;51.468;-2.586;2022-11-21T15:10:16;4.18;;;0.70;;
66966;SDS011;53900;51.468;-2.586;2022-11-21T15:18:01;3.40;;;0.80;;
66966;SDS011;53900;51.468;-2.586;2022-11-21T15:20:28;2.90;;;1.10;;
66966;SDS011;53900;51.468;-2.586;2022-11-21T15:22:55;7.30;;;0.98;;
66966;SDS011;53900;51.468;-2.586;2022-11-21T15:25:30;8.48;;;1.08;;
66966;SDS011;53900;51.468;-2.586;2022-11-21T15:28:13;6.40;;;1.10;;
66966;SDS011;53900;51.468;-2.586;2022-11-21T15:30:39;3.15;;;0.75;;
66966;SDS011;53900;51.468;-2.586;2022-11-21T15:33:26;4.03;;;0.95;;
66966;SDS011;53900;51.468;-2.586;2022-11-21T15:35:53;5.05;;;0.70;;
66966;SDS011;53900;51.468;-2.586;2022-11-21T15:38:23;2.67;;;0.88;;
66966;SDS011;53900;51.468;-2.586;2022-11-21T15:41:33;4.78;;;0.82;;
66966;SDS011;53900;51.468;-2.586;2022-11-21T15:43:46;11.68;;;5.60;;
66966;SDS011;53900;51.468;-2.586;2022-11-21T15:46:14;4.60;;;1.08;;
66966;SDS011;53900;51.468;-2.586;2022-11-21T15:48:45;5.43;;;1.23;;
66966;SDS011;53900;51.468;-2.586;2022-11-21T15:51:14;5.82;;;0.98;;
66966;SDS011;53900;51.468;-2.586;2022-11-21T15:53:40;8.10;;;1.83;;
66966;SDS011;53900;51.468;-2.586;2022-11-21T15:56:08;6.90;;;1.15;;
66966;SDS011;53900;51.468;-2.586;2022-11-21T15:58:35;7.32;;;1.20;;
66966;SDS011;53900;51.468;-2.586;2022-11-21T16:01:00;4.53;;;1.10;;
66966;SDS011;53900;51.468;-2.586;2022-11-21T16:03:25;8.45;;;1.25;;
66966;SDS011;53900;51.468;-2.586;2022-11-21T16:05:51;6.43;;;1.20;;
66966;SDS011;53900;51.468;-2.586;2022-11-21T16:08:16;11.15;;;1.30;;
66966;SDS011;53900;51.468;-2.586;2022-11-21T16:10:41;9.70;;;1.48;;
66966;SDS011;53900;51.468;-2.586;2022-11-21T16:13:07;9.88;;;1.90;;
66966;SDS011;53900;51.468;-2.586;2022-11-21T16:15:33;10.55;;;1.70;;
66966;SDS011;53900;51.468;-2.586;2022-11-21T16:17:58;7.93;;;1.65;;
66966;SDS011;53900;51.468;-2.586;2022-11-21T16:20:23;7.45;;;1.30;;
66966;SDS011;53900;51.468;-2.586;2022-11-21T16:22:49;7.93;;;1.65;;
66966;SDS011;53900;51.468;-2.586;2022-11-21T16:25:14;15.95;;;1.95;;
66966;SDS011;53900;51.468;-2.586;2022-11-21T16:27:40;16.30;;;2.33;;
66966;SDS011;53900;51.468;-2.586;2022-11-21T16:30:05;16.30;;;2.38;;
66966;SDS011;53900;51.468;-2.586;2022-11-21T16:32:31;13.30;;;2.08;;